createdAt,value
2018-05-27T13:47:12.427Z,5.90
2018-05-27T13:49:41.474Z,5.90
2018-05-27T13:52:14.675Z,6.60
2018-05-27T13:54:43.304Z,6.50
2018-05-27T13:57:11.971Z,6.70
2018-05-27T13:59:40.726Z,5.97
2018-05-27T14:02:13.525Z,6.60
2018-05-27T14:04:42.029Z,5.30
2018-05-27T14:07:14.583Z,5.97
2018-05-27T14:13:19.193Z,4.97
2018-05-27T14:15:48.484Z,5.10
2018-05-27T14:18:17.262Z,5.17
2018-05-27T14:20:45.870Z,5.27
2018-05-27T14:23:14.347Z,4.93
2018-05-27T14:25:43.371Z,4.30
2018-05-27T14:28:11.938Z,3.90
2018-05-27T14:30:40.927Z,4.63
2018-05-27T14:33:09.981Z,4.90
2018-05-27T14:35:38.323Z,4.20
2018-05-27T14:41:06.209Z,3.90
2018-05-27T14:43:39.332Z,3.70
2018-05-27T14:46:07.776Z,3.67
2018-05-27T14:48:40.168Z,3.93
2018-05-27T14:51:09.205Z,4.07
2018-05-27T14:53:38.961Z,3.73
2018-05-27T14:56:07.913Z,4.10
2018-05-27T14:58:47.011Z,4.40
2018-05-27T15:01:15.706Z,3.90
2018-05-27T15:03:44.924Z,4.30
2018-05-27T15:06:13.304Z,4.47
2018-05-27T15:08:41.575Z,5.87
2018-05-27T15:11:09.892Z,9.20
2018-05-27T15:13:38.746Z,7.43
2018-05-27T15:16:07.049Z,7.70
2018-05-27T15:18:36.521Z,8.87
2018-05-27T15:21:05.047Z,7.47
2018-05-27T15:23:34.105Z,6.43
2018-05-27T15:26:02.433Z,6.40
2018-05-27T15:28:31.975Z,6.10
2018-05-27T15:31:00.454Z,4.80
2018-05-27T15:33:29.005Z,5.87
2018-05-27T15:35:58.277Z,5.60
2018-05-27T15:38:26.473Z,6.30
2018-05-27T15:40:55.959Z,7.40
2018-05-27T15:43:24.159Z,7.00
2018-05-27T15:45:53.155Z,6.63
2018-05-27T15:48:23.480Z,7.10
2018-05-27T15:50:52.807Z,7.47
2018-05-27T15:53:21.486Z,7.97
2018-05-27T15:55:49.883Z,8.30
2018-05-27T15:58:19.020Z,8.27
2018-05-27T16:00:47.307Z,8.50
2018-05-27T16:03:16.475Z,8.20
2018-05-27T16:05:44.907Z,10.33
2018-05-27T16:08:13.554Z,8.10
2018-05-27T16:10:41.951Z,7.50
2018-05-27T16:13:11.508Z,9.10
2018-05-27T16:15:57.681Z,8.37
2018-05-27T16:18:26.459Z,9.00
2018-05-27T16:20:56.256Z,8.77
2018-05-27T16:23:24.836Z,8.97
2018-05-27T16:25:53.144Z,9.93
2018-05-27T16:28:21.515Z,9.50
2018-05-27T16:30:50.956Z,9.27
2018-05-27T16:33:20.143Z,9.30
2018-05-27T16:35:48.315Z,8.77
2018-05-27T16:38:17.206Z,10.00
2018-05-27T16:40:46.708Z,9.37
2018-05-27T16:43:14.979Z,8.90
2018-05-27T16:46:02.493Z,9.03
2018-05-27T16:48:31.264Z,8.43
2018-05-27T16:51:01.528Z,8.23
2018-05-27T16:53:30.874Z,8.40
2018-05-27T16:56:07.423Z,7.47
2018-05-27T16:58:36.049Z,9.00
2018-05-27T17:01:04.533Z,8.50
2018-05-27T17:03:32.899Z,18.80
2018-05-27T17:09:19.120Z,8.80
2018-05-27T17:19:01.863Z,8.90
2018-05-27T17:21:31.391Z,8.13
2018-05-27T17:24:01.992Z,8.80
2018-05-27T17:26:33.607Z,7.70
2018-05-27T17:29:01.965Z,6.23
2018-05-27T17:31:30.519Z,5.67
2018-05-27T17:33:59.577Z,5.03
2018-05-27T17:36:28.260Z,4.53
2018-05-27T17:38:56.714Z,4.43
2018-05-27T17:41:25.251Z,3.93
2018-05-27T17:43:53.805Z,4.50
2018-05-27T17:46:23.051Z,4.37
2018-05-27T17:48:51.363Z,4.47
2018-05-27T17:51:20.303Z,3.93
2018-05-27T17:53:54.389Z,3.83
2018-05-27T17:56:22.638Z,3.57
2018-05-27T17:58:50.857Z,3.97
2018-05-27T18:01:19.044Z,4.13
2018-05-27T18:03:48.089Z,15.63
2018-05-27T18:06:21.335Z,3.83
2018-05-27T18:08:50.044Z,3.93
2018-05-27T18:11:18.507Z,4.10
2018-05-27T18:13:47.534Z,3.70
2018-05-27T18:16:16.237Z,3.60
2018-05-27T18:18:44.511Z,4.03
2018-05-27T18:21:12.850Z,3.80
2018-05-27T18:23:41.986Z,4.20
2018-05-27T18:26:10.360Z,4.27
2018-05-27T18:28:38.909Z,4.50
2018-05-27T18:31:07.921Z,5.07
2018-05-27T18:33:36.264Z,4.63
2018-05-27T18:36:05.294Z,4.70
2018-05-27T18:38:33.815Z,4.80
2018-05-27T18:41:04.067Z,4.73
2018-05-27T18:43:33.003Z,4.60
2018-05-27T18:46:01.192Z,5.40
2018-05-27T18:48:29.495Z,4.93
2018-05-27T18:50:57.922Z,4.60
2018-05-27T18:53:26.911Z,4.63
2018-05-27T18:55:55.170Z,4.80
2018-05-27T18:58:24.167Z,4.83
2018-05-27T19:00:53.180Z,4.73
2018-05-27T19:03:22.457Z,4.63
2018-05-27T19:05:51.555Z,5.47
2018-05-27T19:08:20.631Z,5.30
2018-05-27T19:10:48.963Z,5.57
2018-05-27T19:15:50.022Z,5.67
2018-05-27T19:18:18.688Z,5.37
2018-05-27T19:20:48.193Z,5.50
2018-05-27T19:23:16.419Z,6.50
2018-05-27T19:25:44.712Z,6.97
2018-05-27T19:28:18.551Z,5.70
2018-05-27T19:30:49.622Z,6.50
2018-05-27T19:33:18.111Z,6.57
2018-05-27T19:35:46.389Z,6.27
2018-05-27T19:38:14.753Z,7.00
2018-05-27T19:40:43.083Z,8.90
2018-05-27T19:43:12.049Z,8.17
2018-05-27T19:45:40.353Z,8.43
2018-05-27T19:48:10.222Z,8.67
2018-05-27T19:50:38.438Z,11.03
2018-05-27T19:53:07.539Z,15.37
2018-05-27T19:55:36.652Z,8.43
2018-05-27T19:58:05.098Z,10.47
2018-05-27T20:00:34.209Z,12.93
2018-05-27T20:03:03.229Z,9.67
2018-05-27T20:08:19.752Z,9.57
2018-05-27T20:10:48.084Z,8.97
2018-05-27T20:13:17.394Z,8.43
2018-05-27T20:15:45.748Z,8.27
2018-05-27T20:18:14.103Z,7.93
2018-05-27T20:20:43.412Z,8.50
2018-05-27T20:23:12.106Z,8.17
2018-05-27T20:25:40.729Z,8.37
2018-05-27T20:28:10.781Z,8.57
2018-05-27T20:30:38.992Z,9.50
2018-05-27T20:33:07.261Z,8.83
2018-05-27T20:35:35.580Z,8.10
2018-05-27T20:38:03.876Z,8.97
2018-05-27T20:40:32.328Z,9.03
2018-05-27T20:43:00.619Z,8.33
2018-05-27T20:45:28.876Z,8.80
2018-05-27T20:47:59.407Z,8.27
2018-05-27T20:50:29.151Z,8.40
2018-05-27T20:52:57.420Z,8.47
2018-05-27T20:55:25.658Z,7.30
2018-05-27T20:57:54.604Z,7.33
2018-05-27T21:00:23.223Z,7.20
2018-05-27T21:02:51.523Z,7.67
2018-05-27T21:05:20.507Z,7.40
2018-05-27T21:07:49.014Z,7.10
2018-05-27T21:10:17.241Z,7.17
2018-05-27T21:12:52.117Z,6.80
2018-05-27T21:15:26.249Z,7.47
2018-05-27T21:17:54.755Z,6.97
2018-05-27T21:20:23.053Z,7.53
2018-05-27T21:22:51.377Z,7.20
2018-05-27T21:25:19.724Z,7.37
2018-05-27T21:27:56.787Z,7.67
2018-05-27T21:30:25.353Z,8.30
2018-05-27T21:32:53.625Z,7.73
2018-05-27T21:35:22.065Z,8.03
2018-05-27T21:37:50.448Z,8.40
2018-05-27T21:40:19.611Z,9.17
2018-05-27T21:42:47.909Z,8.67
2018-05-27T21:45:17.176Z,9.23
2018-05-27T21:47:45.809Z,9.13
2018-05-27T21:50:14.816Z,9.27
2018-05-27T21:52:43.184Z,9.37
2018-05-27T21:55:11.583Z,9.30
2018-05-27T21:57:40.144Z,9.33
2018-05-27T22:00:09.639Z,9.40
2018-05-27T22:02:50.022Z,9.37
2018-05-27T22:05:18.465Z,10.43
2018-05-27T22:07:48.008Z,10.33
2018-05-27T22:10:21.367Z,9.97
2018-05-27T22:12:50.516Z,10.10
2018-05-27T22:15:26.629Z,10.40
2018-05-27T22:17:54.919Z,10.97
2018-05-27T22:20:23.312Z,10.40
2018-05-27T22:22:56.488Z,10.20
2018-05-27T22:28:19.992Z,9.67
2018-05-27T22:30:48.448Z,10.70
2018-05-27T22:36:20.604Z,11.50
2018-05-27T22:38:48.815Z,12.27
2018-05-27T22:41:17.510Z,11.17
2018-05-27T22:43:47.940Z,11.70
2018-05-27T22:46:17.206Z,11.90
2018-05-27T22:48:45.755Z,11.33
2018-05-27T22:51:14.197Z,12.00
2018-05-27T22:53:42.600Z,12.40
2018-05-27T22:56:11.848Z,12.80
2018-05-27T22:58:40.362Z,12.77
2018-05-27T23:01:09.490Z,12.47
2018-05-27T23:03:38.636Z,13.00
2018-05-27T23:06:08.461Z,13.33
2018-05-27T23:08:36.739Z,13.70
2018-05-27T23:11:05.768Z,14.57
2018-05-27T23:13:34.104Z,14.20
2018-05-27T23:16:02.607Z,12.93
2018-05-27T23:18:31.597Z,13.50
2018-05-27T23:21:01.164Z,14.77
2018-05-27T23:23:29.713Z,14.23
2018-05-27T23:25:58.085Z,14.60
2018-05-27T23:28:26.385Z,14.70
2018-05-27T23:30:55.255Z,15.57
2018-05-27T23:33:23.659Z,15.23
2018-05-27T23:35:52.242Z,15.80
2018-05-27T23:38:20.584Z,16.67
2018-05-27T23:40:49.873Z,15.07
2018-05-27T23:43:18.416Z,14.47
2018-05-27T23:45:46.779Z,15.77
2018-05-27T23:48:19.106Z,16.50
2018-05-27T23:50:48.570Z,16.77
2018-05-27T23:53:16.977Z,17.47
2018-05-27T23:55:46.152Z,17.30
